• Join FlightAware (Why Join?)
  • Login
  • US Flag 
07:22PM EDT


 

Airport Tracker/Info


-or-


 

Live Flight TrackerFlight Track Log ✈ UPS1121 ✈ 16-May-2013 ✈ KBDL - KPHL

Flight Track Log - Related Links

Times and Time Zones

All times are in EDT time to prevent confusion due to time zone crossing. See the UPS1121 flight status page for this flight to view local times or setup timezone preferences in your user account.

Time Position Orientation Groundspeed Altitude Reporting Facility
EDT Latitude Longitude Course Direction KTS MPH feet Rate Location/Type
09:55PM 41.9292 -72.7025 210° Southwest 157 181 1,200  Level Boston Center
09:57PM 41.8519 -72.7633 210° Southwest 227 261 4,700 2,640 Climbing Boston Center
10:02PM 41.4380 -72.3850 210° Southwest 373 429 20,000 2,400 Climbing FlightAware
10:03PM 41.3530 -72.4530 211° Southwest 379 436 20,000  Level FlightAware
10:04PM 41.2970 -72.4980 211° Southwest 382 440 20,000  Level FlightAware
10:05PM 41.2360 -72.5470 211° Southwest 382 440 20,000  Level FlightAware
10:05PM 41.1850 -72.5880 211° Southwest 382 440 20,000  Level FlightAware
10:06PM 41.0860 -72.6600 209° Southwest 380 437 20,000  Level FlightAware
10:07PM 41.0260 -72.7050 210° Southwest 378 435 20,000  Level FlightAware
10:07PM 40.9640 -72.7520 210° Southwest 376 433 20,000  Level FlightAware
10:08PM 40.8950 -72.8050 210° Southwest 374 430 20,000  Level FlightAware
10:09PM 40.8477 -72.8411 210° Southwest 374 430 20,000  Level FlightAware ADS-B
10:09PM 40.8025 -72.8754 210° Southwest 374 430 20,000  Level FlightAware ADS-B
10:10PM 40.7536 -72.9125 210° Southwest 375 432 20,000  Level FlightAware ADS-B
10:10PM 40.7085 -72.9465 210° Southwest 373 429 20,000  Level FlightAware ADS-B
10:11PM 40.6617 -72.9816 210° Southwest 376 433 20,000  Level FlightAware ADS-B
10:11PM 40.6161 -73.0158 210° Southwest 378 435 20,000  Level FlightAware ADS-B
10:12PM 40.5695 -73.0507 210° Southwest 379 436 20,000  Level FlightAware ADS-B
10:12PM 40.5237 -73.0848 210° Southwest 380 437 20,000  Level FlightAware ADS-B
10:13PM 40.4773 -73.1194 210° Southwest 383 441 20,000  Level FlightAware ADS-B
10:13PM 40.4304 -73.1542 209° Southwest 383 441 20,000  Level FlightAware ADS-B
10:14PM 40.3870 -73.1860 209° Southwest 382 440 20,000  Level FlightAware
10:14PM 40.3712 -73.1980 210° Southwest 382 440 20,000  Level FlightAware ADS-B
10:14PM 40.3238 -73.2331 209° Southwest 382 440 20,000  Level FlightAware ADS-B
10:15PM 40.2756 -73.2686 209° Southwest 384 442 20,000  Level FlightAware ADS-B
10:15PM 40.2249 -73.3060 209° Southwest 383 441 20,000  Level FlightAware ADS-B
10:16PM 40.1785 -73.3400 209° Southwest 384 442 20,000  Level FlightAware ADS-B
10:16PM 40.1309 -73.3751 209° Southwest 384 442 20,000  Level FlightAware ADS-B
10:17PM 40.0791 -73.4131 209° Southwest 386 444 20,000  Level FlightAware ADS-B
10:18PM 40.0310 -73.4484 209° Southwest 389 448 20,000  Level FlightAware ADS-B
10:18PM 39.9825 -73.4837 209° Southwest 391 450 20,000  Level FlightAware ADS-B
10:19PM 39.9346 -73.5187 209° Southwest 393 452 20,000  Level FlightAware ADS-B
10:19PM 39.9198 -73.5306 212° Southwest 389 448 20,000  Level FlightAware ADS-B
10:19PM 39.8890 -73.5608 217° Southwest 384 442 20,000  Level FlightAware ADS-B
10:19PM 39.8571 -73.6021 225° Southwest 378 435 20,000  Level FlightAware ADS-B
10:20PM 39.8190 -73.6634 231° Southwest 378 435 20,000  Level FlightAware ADS-B
10:21PM 39.7854 -73.7178 231° Southwest 378 435 20,000  Level FlightAware ADS-B
10:21PM 39.7517 -73.7723 231° Southwest 378 435 20,000  Level FlightAware ADS-B
10:22PM 39.7126 -73.8356 231° Southwest 378 435 20,000 -120 Level FlightAware ADS-B
10:22PM 39.6797 -73.8886 231° Southwest 380 437 19,900 -1,020 Descending FlightAware ADS-B
10:23PM 39.6461 -73.9427 231° Southwest 372 428 19,000 -2,280 Descending FlightAware ADS-B
10:23PM 39.6122 -73.9971 231° Southwest 367 422 17,600 -2,520 Descending FlightAware ADS-B
10:24PM 39.5802 -74.0484 231° Southwest 360 414 16,400 -2,520 Descending FlightAware ADS-B
10:24PM 39.5476 -74.1004 231° Southwest 356 410 15,000 -2,580 Descending FlightAware ADS-B
10:24PM 39.5376 -74.1196 236° Southwest 351 404 14,600 -2,160 Descending FlightAware ADS-B
10:25PM 39.5330 -74.1320 244° Southwest 347 399 14,400 -1,200 Descending FlightAware ADS-B
10:25PM 39.5254 -74.1711 256° West 337 388 14,100 -1,200 Descending FlightAware ADS-B
10:25PM 39.5257 -74.2410 270° West 334 384 13,300 -1,200 Descending FlightAware ADS-B
10:26PM 39.5273 -74.3127 272° West 321 369 12,700 -1,020 Descending FlightAware ADS-B
10:27PM 39.5282 -74.3707 271° West 315 362 12,200 -960 Descending FlightAware ADS-B
10:27PM 39.5292 -74.4479 271° West 317 365 11,600 -960 Descending FlightAware ADS-B
10:28PM 39.5297 -74.5138 271° West 305 351 11,000 -900 Descending FlightAware ADS-B
10:28PM 39.5304 -74.5699 271° West 295 339 10,600 -900 Descending FlightAware ADS-B
10:29PM 39.5316 -74.6247 272° West 279 321 10,100 -660 Descending FlightAware ADS-B
10:29PM 39.5324 -74.6622 272° West 260 299 10,000 -780 Descending FlightAware ADS-B
10:30PM 39.5331 -74.6880 272° West 259 298 9,600 -1,140 Descending FlightAware ADS-B
10:30PM 39.5337 -74.7148 272° West 274 315 9,400 -780 Descending FlightAware ADS-B
10:30PM 39.5341 -74.7397 271° West 273 314 9,200 -600 Descending FlightAware ADS-B
10:30PM 39.5345 -74.7682 271° West 269 310 9,100 -240 Descending FlightAware ADS-B
10:31PM 39.5349 -74.7930 271° West 270 311 9,100  Level FlightAware ADS-B
10:31PM 39.5353 -74.8050 272° West 271 312 9,100 -420 Level FlightAware ADS-B
10:31PM 39.5369 -74.8181 279° West 270 311 9,000 -840 Descending FlightAware ADS-B
10:31PM 39.5399 -74.8282 291° West 267 307 8,900 -1,140 Descending FlightAware ADS-B
10:31PM 39.5429 -74.8345 302° West 265 305 8,800 -960 Descending FlightAware ADS-B
10:31PM 39.5495 -74.8438 313° West 263 303 8,700 -600 Descending FlightAware ADS-B
10:31PM 39.5526 -74.8468 323° Northwest 262 302 8,700 -780 Level FlightAware ADS-B
10:31PM 39.5573 -74.8502 331° Northwest 261 300 8,600 -1,380 Descending FlightAware ADS-B
10:31PM 39.5627 -74.8530 338° Northwest 261 300 8,500 -1,380 Descending FlightAware ADS-B
10:32PM 39.5680 -74.8549 345° North 260 299 8,400 -1,380 Descending FlightAware ADS-B
10:32PM 39.5727 -74.8562 348° North 259 298 8,300 -1,140 Descending FlightAware ADS-B
10:32PM 39.5865 -74.8590 351° North 259 298 8,100 -360 Descending FlightAware ADS-B
10:32PM 39.6166 -74.8644 352° North 261 300 8,100  Level FlightAware ADS-B
10:32PM 39.6351 -74.8678 352° North 263 303 8,100  Level FlightAware ADS-B
10:33PM 39.6533 -74.8712 352° North 264 304 8,100  Level FlightAware ADS-B
10:33PM 39.6703 -74.8745 352° North 263 303 8,100 -240 Level FlightAware ADS-B
10:33PM 39.6878 -74.8779 351° North 260 299 8,000 -780 Descending FlightAware ADS-B
10:33PM 39.7072 -74.8818 351° North 257 296 7,700 -1,380 Descending FlightAware ADS-B
10:34PM 39.7309 -74.8865 351° North 256 295 7,200 -1,500 Descending FlightAware ADS-B
10:34PM 39.7487 -74.8900 351° North 255 293 6,800 -1,380 Descending FlightAware ADS-B
10:34PM 39.7670 -74.8935 352° North 251 289 6,500 -1,020 Descending FlightAware ADS-B
10:35PM 39.7843 -74.8967 352° North 241 277 6,300 -1,080 Descending FlightAware ADS-B
10:35PM 39.8049 -74.9003 352° North 224 258 5,900 -1,380 Descending FlightAware ADS-B
10:35PM 39.8256 -74.9038 353° North 224 258 5,400 -1,680 Descending FlightAware ADS-B
10:35PM 39.8401 -74.9060 353° North 208 239 4,900 -1,920 Descending FlightAware ADS-B
10:36PM 39.8466 -74.9070 353° North 207 238 4,700 -1,860 Descending FlightAware ADS-B
10:36PM 39.8516 -74.9081 350° North 205 236 4,500 -2,340 Descending FlightAware ADS-B
10:36PM 39.8584 -74.9101 347° North 202 232 4,200 -2,040 Descending FlightAware ADS-B
10:36PM 39.8654 -74.9126 345° North 201 231 4,000 -1,440 Descending FlightAware ADS-B
10:36PM 39.8876 -74.9223 341° North 197 227 3,400 -1,140 Descending FlightAware ADS-B
10:36PM 39.8921 -74.9259 328° Northwest 176 203 3,400 -540 Level FlightAware ADS-B
10:37PM 39.8961 -74.9293 327° Northwest 172 198 3,300 -480 Descending FlightAware ADS-B
10:37PM 39.9007 -74.9338 323° Northwest 168 193 3,300 -420 Level FlightAware ADS-B
10:37PM 39.9045 -74.9384 317° Northwest 164 189 3,200 -1,020 Descending FlightAware ADS-B
10:37PM 39.9076 -74.9426 314° West 162 186 3,100 -600 Descending FlightAware ADS-B
10:37PM 39.9101 -74.9466 309° West 160 184 3,100  Level FlightAware ADS-B
10:37PM 39.9165 -74.9593 303° West 164 189 3,100  Level FlightAware ADS-B
10:37PM 39.9192 -74.9655 300° West 163 188 3,100  Level FlightAware ADS-B
10:37PM 39.9212 -74.9709 296° West 163 188 3,100  Level FlightAware ADS-B
10:38PM 39.9220 -74.9747 285° West 163 188 3,100  Level FlightAware ADS-B
10:38PM 39.9223 -74.9794 275° West 164 189 3,100  Level FlightAware ADS-B
10:38PM 39.9222 -74.9826 268° West 166 191 3,100  Level FlightAware ADS-B
10:38PM 39.9217 -74.9865 261° West 168 193 3,100  Level FlightAware ADS-B
10:38PM 39.9207 -74.9921 257° West 169 194 3,100  Level FlightAware ADS-B
10:38PM 39.9182 -75.0039 255° West 168 193 3,100  Level FlightAware ADS-B
10:38PM 39.9157 -75.0180 257° West 167 192 3,100 -540 Level FlightAware ADS-B
10:39PM 39.9095 -75.0495 256° West 175 201 2,700 -720 Descending FlightAware ADS-B
10:39PM 39.9068 -75.0634 256° West 175 201 2,600 -720 Descending FlightAware ADS-B
10:39PM 39.9044 -75.0753 255° West 167 192 2,400 -1,080 Descending FlightAware ADS-B
10:39PM 39.9024 -75.0855 256° West 161 185 2,200 -960 Descending FlightAware ADS-B
10:40PM 39.8996 -75.0998 256° West 150 173 2,000 -780 Descending FlightAware ADS-B
10:40PM 39.8970 -75.1126 255° West 139 160 1,800 -780 Descending FlightAware ADS-B
10:40PM 39.8947 -75.1243 256° West 123 142 1,600 -600 Descending FlightAware ADS-B
10:40PM 39.8928 -75.1342 256° West 106 122 1,500 -480 Descending FlightAware ADS-B
10:41PM 39.8914 -75.1415 256° West 97 112 1,400 -540 Descending FlightAware ADS-B
10:41PM 39.8901 -75.1475 254° West 96 110 1,300 -600 Descending FlightAware ADS-B
10:41PM 39.8890 -75.1535 257° West 96 110 1,200 -480 Descending FlightAware ADS-B
10:41PM 39.8872 -75.1627 256° West 98 113 1,100 -480 Descending FlightAware ADS-B
10:41PM 39.8859 -75.1694 256° West 101 116 1,000 -660 Descending FlightAware ADS-B
10:42PM 39.8839 -75.1796 256° West 102 117 800 -600 Descending FlightAware ADS-B
10:42PM 39.8823 -75.1873 255° West 105 121 700 -420 Descending FlightAware ADS-B
10:42PM 39.8804 -75.1971 256° West 105 121 600 -420 Descending FlightAware ADS-B
10:43PM 39.8760 -75.2170 254° West 109 125 300 -480 Descending FlightAware